Hoskins, NE (68740)

5:13 PM CST on November 25, 2014 (GMT -0600)
Hogendorn Hill | Change Station
CLOSE
Current Station
Personal Weather Station
Location: Pierce, NE
Elevation: 1680 ft
Nearby Weather Stations

Elev 1680 ft 42.19 °N, 97.46 °W | Updated 3 minutes ago

Overcast
Overcast
41.2 °F
Feels Like 36 °F
N
7.6
Wind Variable Wind from SW
Gusts 9.8 mph

Today
High -- | Low -- °F
--% Chance of Precip.
Yesterday
High -- | Low -- °F
Precip. -- in
7:31 AM 5:00 PM
Waxing Crescent, 14% visible
Pressure 29.91 in
Visibility 10.0 miles
Clouds Overcast 8000 ft
Windchill 36 °F
Dew Point 30 °F
Humidity 63%
Rainfall 0.00 in
Snow Depth Not available.
UV 0 out of 12
Pollen .10 out of 12
Air Quality Not available.
Flu Activity Not available.
METAR KOFK 252256Z AUTO 18010KT 10SM OVC080 06/M03 A2986 RMK AO2 SLP129 T00561033

More Conditions Fewer Conditions

Pressure 29.91 in
Visibility 10.0 miles
Clouds Overcast 8000 ft
Windchill 36 °F
Dew Point 30 °F
Humidity 63%
Rainfall 0.00 in
Snow Depth Not available.
UV 0 out of 12
Pollen .10 out of 12
Air Quality Not available.
Flu Activity Not available.
METAR KOFK 252256Z AUTO 18010KT 10SM OVC080 06/M03 A2986 RMK AO2 SLP129 T00561033

More Conditions Fewer Conditions

10-Day Weather Forecast

Almanac

Astronomy

Nov. 25, 2014 Rise Set
Actual Time
Civil Twilight
Nautical Twilight
Astronomical Twilight
Moon
Length of Visible Light
Length of Day
Tomorrow will be .
, % of the Moon is Illuminated

Today's Extremes

State Highs State Lows

Community

WunderPhotos

Upload Photos

1,773,620 photos uploaded!

WunderBlogs® & News

Nearby

Air Quality

  Air Quality AQ Index Pollutant
Not available.

Snow Depth

Station Depth Elevation

Earthquake Activity

City Distance Mag. Time & Date
Minimum magnitude displayed is 2.5.

Coastal Water Temperatures

Place Temperature

Nearby Weather Stations